sensor_id;sensor_type;location;lat;lon;timestamp;P1;durP1;ratioP1;P2;durP2;ratioP2
44046;SDS011;29713;-33.888;151.150;2023-09-19T11:09:50;13.80;;;6.20;;
44046;SDS011;29713;-33.888;151.150;2023-09-19T11:15:05;12.25;;;7.30;;
44046;SDS011;29713;-33.888;151.150;2023-09-19T11:17:42;14.13;;;7.47;;
44046;SDS011;29713;-33.888;151.150;2023-09-19T11:28:29;9.63;;;5.78;;
44046;SDS011;29713;-33.888;151.150;2023-09-19T11:30:50;9.82;;;5.88;;
44046;SDS011;29713;-33.888;151.150;2023-09-19T11:33:23;10.55;;;6.55;;
44046;SDS011;29713;-33.888;151.150;2023-09-19T11:36:12;10.10;;;6.07;;
44046;SDS011;29713;-33.888;151.150;2023-09-19T11:43:47;9.10;;;5.97;;
44046;SDS011;29713;-33.888;151.150;2023-09-19T11:46:20;11.07;;;6.22;;
44046;SDS011;29713;-33.888;151.150;2023-09-19T11:48:48;14.15;;;6.47;;
44046;SDS011;29713;-33.888;151.150;2023-09-19T11:51:19;12.27;;;6.22;;
44046;SDS011;29713;-33.888;151.150;2023-09-19T11:53:49;10.95;;;6.60;;
44046;SDS011;29713;-33.888;151.150;2023-09-19T11:56:18;10.13;;;6.28;;
44046;SDS011;29713;-33.888;151.150;2023-09-19T11:58:49;10.93;;;7.78;;
44046;SDS011;29713;-33.888;151.150;2023-09-19T12:01:29;11.93;;;7.17;;
44046;SDS011;29713;-33.888;151.150;2023-09-19T12:03:59;11.05;;;6.90;;
44046;SDS011;29713;-33.888;151.150;2023-09-19T12:06:30;11.02;;;6.68;;
44046;SDS011;29713;-33.888;151.150;2023-09-19T12:09:02;14.48;;;6.80;;
44046;SDS011;29713;-33.888;151.150;2023-09-19T12:11:32;10.70;;;5.60;;
44046;SDS011;29713;-33.888;151.150;2023-09-19T12:14:08;11.25;;;5.72;;
44046;SDS011;29713;-33.888;151.150;2023-09-19T12:16:35;10.50;;;5.97;;
44046;SDS011;29713;-33.888;151.150;2023-09-19T12:19:19;13.75;;;5.88;;
44046;SDS011;29713;-33.888;151.150;2023-09-19T12:21:57;8.93;;;5.95;;
44046;SDS011;29713;-33.888;151.150;2023-09-19T12:24:32;12.00;;;6.60;;
44046;SDS011;29713;-33.888;151.150;2023-09-19T12:27:03;12.23;;;6.60;;
44046;SDS011;29713;-33.888;151.150;2023-09-19T12:29:32;11.40;;;6.93;;
44046;SDS011;29713;-33.888;151.150;2023-09-19T12:32:15;13.70;;;7.47;;
44046;SDS011;29713;-33.888;151.150;2023-09-19T12:34:54;11.98;;;6.82;;
44046;SDS011;29713;-33.888;151.150;2023-09-19T12:37:21;14.70;;;7.63;;
44046;SDS011;29713;-33.888;151.150;2023-09-19T12:39:53;13.43;;;7.23;;
44046;SDS011;29713;-33.888;151.150;2023-09-19T12:42:40;13.52;;;7.20;;
44046;SDS011;29713;-33.888;151.150;2023-09-19T12:45:08;11.05;;;6.57;;
44046;SDS011;29713;-33.888;151.150;2023-09-19T12:47:36;12.47;;;7.03;;
44046;SDS011;29713;-33.888;151.150;2023-09-19T12:50:13;9.27;;;6.03;;
44046;SDS011;29713;-33.888;151.150;2023-09-19T12:52:52;8.90;;;5.97;;
44046;SDS011;29713;-33.888;151.150;2023-09-19T12:55:22;9.90;;;5.80;;
44046;SDS011;29713;-33.888;151.150;2023-09-19T12:57:57;11.07;;;6.20;;
44046;SDS011;29713;-33.888;151.150;2023-09-19T13:00:46;10.73;;;5.97;;
44046;SDS011;29713;-33.888;151.150;2023-09-19T13:03:17;12.30;;;6.13;;
44046;SDS011;29713;-33.888;151.150;2023-09-19T13:05:58;8.15;;;5.60;;
44046;SDS011;29713;-33.888;151.150;2023-09-19T13:08:31;8.32;;;5.47;;
44046;SDS011;29713;-33.888;151.150;2023-09-19T13:11:05;8.57;;;5.60;;
44046;SDS011;29713;-33.888;151.150;2023-09-19T13:16:26;9.45;;;5.30;;
44046;SDS011;29713;-33.888;151.150;2023-09-19T13:18:55;7.28;;;5.35;;
44046;SDS011;29713;-33.888;151.150;2023-09-19T13:21:34;7.80;;;5.38;;
44046;SDS011;29713;-33.888;151.150;2023-09-19T13:24:24;6.20;;;5.38;;
44046;SDS011;29713;-33.888;151.150;2023-09-19T13:26:54;8.65;;;5.50;;
44046;SDS011;29713;-33.888;151.150;2023-09-19T13:29:22;7.32;;;5.40;;
44046;SDS011;29713;-33.888;151.150;2023-09-19T13:31:50;7.05;;;4.88;;
44046;SDS011;29713;-33.888;151.150;2023-09-19T13:34:21;8.10;;;5.00;;
44046;SDS011;29713;-33.888;151.150;2023-09-19T13:36:50;6.60;;;4.68;;
44046;SDS011;29713;-33.888;151.150;2023-09-19T13:39:17;7.50;;;5.05;;
44046;SDS011;29713;-33.888;151.150;2023-09-19T13:41:45;5.78;;;4.50;;
44046;SDS011;29713;-33.888;151.150;2023-09-19T13:44:15;6.40;;;4.75;;
44046;SDS011;29713;-33.888;151.150;2023-09-19T13:46:43;7.38;;;4.90;;
44046;SDS011;29713;-33.888;151.150;2023-09-19T13:49:13;6.22;;;4.45;;
44046;SDS011;29713;-33.888;151.150;2023-09-19T13:51:43;5.07;;;4.20;;
44046;SDS011;29713;-33.888;151.150;2023-09-19T13:54:10;5.23;;;4.30;;
44046;SDS011;29713;-33.888;151.150;2023-09-19T13:56:38;4.80;;;4.22;;
44046;SDS011;29713;-33.888;151.150;2023-09-19T13:59:05;6.50;;;4.72;;
44046;SDS011;29713;-33.888;151.150;2023-09-19T14:01:32;5.85;;;4.70;;
44046;SDS011;29713;-33.888;151.150;2023-09-19T14:04:00;7.38;;;5.00;;
44046;SDS011;29713;-33.888;151.150;2023-09-19T14:06:28;5.78;;;5.05;;
44046;SDS011;29713;-33.888;151.150;2023-09-19T14:08:55;5.80;;;4.68;;
44046;SDS011;29713;-33.888;151.150;2023-09-19T14:11:22;6.03;;;5.00;;
44046;SDS011;29713;-33.888;151.150;2023-09-19T14:13:50;6.53;;;5.47;;
44046;SDS011;29713;-33.888;151.150;2023-09-19T14:16:17;6.18;;;5.20;;
44046;SDS011;29713;-33.888;151.150;2023-09-19T14:18:47;6.60;;;5.50;;
44046;SDS011;29713;-33.888;151.150;2023-09-19T14:21:18;5.50;;;4.90;;
44046;SDS011;29713;-33.888;151.150;2023-09-19T14:23:45;7.50;;;5.35;;
44046;SDS011;29713;-33.888;151.150;2023-09-19T14:26:12;6.63;;;5.47;;
44046;SDS011;29713;-33.888;151.150;2023-09-19T14:28:41;6.80;;;5.23;;
44046;SDS011;29713;-33.888;151.150;2023-09-19T14:31:09;5.70;;;5.05;;
44046;SDS011;29713;-33.888;151.150;2023-09-19T14:33:37;9.95;;;5.60;;
44046;SDS011;29713;-33.888;151.150;2023-09-19T14:36:05;7.03;;;5.18;;
44046;SDS011;29713;-33.888;151.150;2023-09-19T14:38:35;6.07;;;5.05;;
44046;SDS011;29713;-33.888;151.150;2023-09-19T14:41:04;8.43;;;5.35;;
44046;SDS011;29713;-33.888;151.150;2023-09-19T14:43:32;6.00;;;4.93;;
44046;SDS011;29713;-33.888;151.150;2023-09-19T14:46:03;7.75;;;5.38;;
44046;SDS011;29713;-33.888;151.150;2023-09-19T14:48:37;5.18;;;4.65;;
44046;SDS011;29713;-33.888;151.150;2023-09-19T14:51:06;6.13;;;4.78;;
44046;SDS011;29713;-33.888;151.150;2023-09-19T14:53:37;5.90;;;5.20;;
44046;SDS011;29713;-33.888;151.150;2023-09-19T14:56:06;6.80;;;4.85;;
44046;SDS011;29713;-33.888;151.150;2023-09-19T14:58:35;7.22;;;4.72;;
44046;SDS011;29713;-33.888;151.150;2023-09-19T15:03:39;5.95;;;4.85;;
44046;SDS011;29713;-33.888;151.150;2023-09-19T15:06:12;5.90;;;4.72;;
44046;SDS011;29713;-33.888;151.150;2023-09-19T15:08:46;6.78;;;4.78;;
44046;SDS011;29713;-33.888;151.150;2023-09-19T15:11:16;5.68;;;4.80;;
44046;SDS011;29713;-33.888;151.150;2023-09-19T15:13:48;6.85;;;4.85;;
44046;SDS011;29713;-33.888;151.150;2023-09-19T15:16:19;5.53;;;4.23;;
44046;SDS011;29713;-33.888;151.150;2023-09-19T15:18:46;5.55;;;4.50;;
44046;SDS011;29713;-33.888;151.150;2023-09-19T15:21:14;5.32;;;4.22;;
44046;SDS011;29713;-33.888;151.150;2023-09-19T15:23:42;5.67;;;4.53;;
44046;SDS011;29713;-33.888;151.150;2023-09-19T15:26:10;6.50;;;4.40;;
44046;SDS011;29713;-33.888;151.150;2023-09-19T15:28:38;5.43;;;4.20;;
44046;SDS011;29713;-33.888;151.150;2023-09-19T15:31:10;5.75;;;4.20;;
44046;SDS011;29713;-33.888;151.150;2023-09-19T15:33:38;4.73;;;4.00;;
44046;SDS011;29713;-33.888;151.150;2023-09-19T15:36:07;5.00;;;4.22;;
44046;SDS011;29713;-33.888;151.150;2023-09-19T15:41:35;5.28;;;4.15;;
44046;SDS011;29713;-33.888;151.150;2023-09-19T15:44:15;5.57;;;3.95;;
44046;SDS011;29713;-33.888;151.150;2023-09-19T15:46:47;5.30;;;4.10;;
44046;SDS011;29713;-33.888;151.150;2023-09-19T15:49:14;5.13;;;3.83;;
44046;SDS011;29713;-33.888;151.150;2023-09-19T15:51:41;6.55;;;4.03;;
44046;SDS011;29713;-33.888;151.150;2023-09-19T15:54:10;5.85;;;4.30;;
44046;SDS011;29713;-33.888;151.150;2023-09-19T15:56:41;4.60;;;3.97;;
44046;SDS011;29713;-33.888;151.150;2023-09-19T15:59:09;5.22;;;4.03;;
44046;SDS011;29713;-33.888;151.150;2023-09-19T16:01:41;6.05;;;4.13;;
44046;SDS011;29713;-33.888;151.150;2023-09-19T16:04:09;4.70;;;3.97;;
44046;SDS011;29713;-33.888;151.150;2023-09-19T16:06:37;4.43;;;4.03;;
44046;SDS011;29713;-33.888;151.150;2023-09-19T16:09:05;5.27;;;4.10;;
44046;SDS011;29713;-33.888;151.150;2023-09-19T16:11:33;5.60;;;4.00;;
44046;SDS011;29713;-33.888;151.150;2023-09-19T16:14:01;5.20;;;4.50;;
44046;SDS011;29713;-33.888;151.150;2023-09-19T16:16:29;4.18;;;3.78;;
44046;SDS011;29713;-33.888;151.150;2023-09-19T16:19:00;5.78;;;4.28;;
44046;SDS011;29713;-33.888;151.150;2023-09-19T16:21:31;5.00;;;4.07;;
44046;SDS011;29713;-33.888;151.150;2023-09-19T16:24:00;4.25;;;3.85;;
44046;SDS011;29713;-33.888;151.150;2023-09-19T16:26:29;5.25;;;3.88;;
44046;SDS011;29713;-33.888;151.150;2023-09-19T16:28:57;5.50;;;4.30;;
44046;SDS011;29713;-33.888;151.150;2023-09-19T16:31:28;6.75;;;4.03;;
44046;SDS011;29713;-33.888;151.150;2023-09-19T16:33:56;5.00;;;4.00;;
44046;SDS011;29713;-33.888;151.150;2023-09-19T16:36:27;5.18;;;3.97;;
44046;SDS011;29713;-33.888;151.150;2023-09-19T16:38:54;4.35;;;3.92;;
44046;SDS011;29713;-33.888;151.150;2023-09-19T16:41:22;4.78;;;4.07;;
44046;SDS011;29713;-33.888;151.150;2023-09-19T16:43:49;4.10;;;3.70;;
44046;SDS011;29713;-33.888;151.150;2023-09-19T16:46:17;4.03;;;3.63;;
44046;SDS011;29713;-33.888;151.150;2023-09-19T16:48:45;4.93;;;3.80;;
44046;SDS011;29713;-33.888;151.150;2023-09-19T16:51:15;4.72;;;3.80;;
44046;SDS011;29713;-33.888;151.150;2023-09-19T16:53:43;5.00;;;3.80;;
44046;SDS011;29713;-33.888;151.150;2023-09-19T16:56:18;4.32;;;3.75;;
44046;SDS011;29713;-33.888;151.150;2023-09-19T16:58:46;4.70;;;3.43;;
44046;SDS011;29713;-33.888;151.150;2023-09-19T17:01:17;3.80;;;3.40;;
44046;SDS011;29713;-33.888;151.150;2023-09-19T17:03:45;4.55;;;3.72;;
44046;SDS011;29713;-33.888;151.150;2023-09-19T17:06:13;4.33;;;3.40;;
44046;SDS011;29713;-33.888;151.150;2023-09-19T17:08:43;4.88;;;3.60;;
44046;SDS011;29713;-33.888;151.150;2023-09-19T17:11:11;3.65;;;3.30;;
44046;SDS011;29713;-33.888;151.150;2023-09-19T17:13:41;3.95;;;3.40;;
44046;SDS011;29713;-33.888;151.150;2023-09-19T17:16:10;3.90;;;3.50;;
44046;SDS011;29713;-33.888;151.150;2023-09-19T17:18:40;4.05;;;3.40;;
44046;SDS011;29713;-33.888;151.150;2023-09-19T17:21:08;4.38;;;3.30;;
44046;SDS011;29713;-33.888;151.150;2023-09-19T17:23:38;4.88;;;3.55;;
44046;SDS011;29713;-33.888;151.150;2023-09-19T17:26:06;5.07;;;3.47;;
44046;SDS011;29713;-33.888;151.150;2023-09-19T17:28:46;3.87;;;3.20;;
44046;SDS011;29713;-33.888;151.150;2023-09-19T17:31:14;4.47;;;3.20;;
44046;SDS011;29713;-33.888;151.150;2023-09-19T17:33:43;4.30;;;3.10;;
44046;SDS011;29713;-33.888;151.150;2023-09-19T17:36:13;3.75;;;3.30;;
44046;SDS011;29713;-33.888;151.150;2023-09-19T17:38:42;5.13;;;3.17;;
44046;SDS011;29713;-33.888;151.150;2023-09-19T17:41:11;4.30;;;3.38;;
44046;SDS011;29713;-33.888;151.150;2023-09-19T17:43:41;3.70;;;3.10;;
44046;SDS011;29713;-33.888;151.150;2023-09-19T17:46:13;3.50;;;3.20;;
44046;SDS011;29713;-33.888;151.150;2023-09-19T17:48:45;4.27;;;3.20;;
44046;SDS011;29713;-33.888;151.150;2023-09-19T17:51:18;5.82;;;3.35;;
44046;SDS011;29713;-33.888;151.150;2023-09-19T17:53:46;4.10;;;3.17;;
44046;SDS011;29713;-33.888;151.150;2023-09-19T17:56:14;4.88;;;3.30;;
44046;SDS011;29713;-33.888;151.150;2023-09-19T17:58:44;5.00;;;3.58;;
44046;SDS011;29713;-33.888;151.150;2023-09-19T18:01:19;4.50;;;3.20;;
44046;SDS011;29713;-33.888;151.150;2023-09-19T18:03:48;5.10;;;3.20;;
44046;SDS011;29713;-33.888;151.150;2023-09-19T18:06:35;4.90;;;3.30;;
44046;SDS011;29713;-33.888;151.150;2023-09-19T18:09:03;3.45;;;3.15;;
44046;SDS011;29713;-33.888;151.150;2023-09-19T18:11:32;3.72;;;3.10;;
44046;SDS011;29713;-33.888;151.150;2023-09-19T18:14:00;4.75;;;3.20;;
44046;SDS011;29713;-33.888;151.150;2023-09-19T18:16:27;3.60;;;3.15;;
44046;SDS011;29713;-33.888;151.150;2023-09-19T18:18:57;4.10;;;3.13;;
44046;SDS011;29713;-33.888;151.150;2023-09-19T18:21:25;3.50;;;2.88;;
44046;SDS011;29713;-33.888;151.150;2023-09-19T18:23:56;4.50;;;3.20;;
44046;SDS011;29713;-33.888;151.150;2023-09-19T18:26:29;4.47;;;3.03;;
44046;SDS011;29713;-33.888;151.150;2023-09-19T18:28:56;4.13;;;3.30;;
44046;SDS011;29713;-33.888;151.150;2023-09-19T18:31:23;4.03;;;3.10;;
44046;SDS011;29713;-33.888;151.150;2023-09-19T18:33:51;4.97;;;3.53;;
44046;SDS011;29713;-33.888;151.150;2023-09-19T18:36:18;4.10;;;3.25;;
44046;SDS011;29713;-33.888;151.150;2023-09-19T18:38:46;3.95;;;3.20;;
44046;SDS011;29713;-33.888;151.150;2023-09-19T18:41:14;3.90;;;3.00;;
44046;SDS011;29713;-33.888;151.150;2023-09-19T18:43:41;3.45;;;3.15;;
44046;SDS011;29713;-33.888;151.150;2023-09-19T18:46:09;5.13;;;3.30;;
44046;SDS011;29713;-33.888;151.150;2023-09-19T18:48:39;5.15;;;3.25;;
44046;SDS011;29713;-33.888;151.150;2023-09-19T19:08:32;4.40;;;2.60;;
44046;SDS011;29713;-33.888;151.150;2023-09-19T19:11:00;5.55;;;2.65;;
44046;SDS011;29713;-33.888;151.150;2023-09-19T19:13:32;5.22;;;3.15;;
44046;SDS011;29713;-33.888;151.150;2023-09-19T19:15:59;4.50;;;2.65;;
44046;SDS011;29713;-33.888;151.150;2023-09-19T19:18:30;6.63;;;3.10;;
44046;SDS011;29713;-33.888;151.150;2023-09-19T19:20:58;3.65;;;2.53;;
44046;SDS011;29713;-33.888;151.150;2023-09-19T19:23:26;5.93;;;2.65;;
44046;SDS011;29713;-33.888;151.150;2023-09-19T19:25:54;2.95;;;2.47;;
44046;SDS011;29713;-33.888;151.150;2023-09-19T19:28:25;3.42;;;2.35;;
44046;SDS011;29713;-33.888;151.150;2023-09-19T19:30:54;3.38;;;2.40;;
44046;SDS011;29713;-33.888;151.150;2023-09-19T19:35:50;4.47;;;2.95;;
44046;SDS011;29713;-33.888;151.150;2023-09-19T19:38:18;4.43;;;3.30;;
44046;SDS011;29713;-33.888;151.150;2023-09-19T19:40:56;5.10;;;3.25;;
44046;SDS011;29713;-33.888;151.150;2023-09-19T19:43:25;4.90;;;3.28;;
44046;SDS011;29713;-33.888;151.150;2023-09-19T19:45:57;3.75;;;3.13;;
44046;SDS011;29713;-33.888;151.150;2023-09-19T19:48:26;4.18;;;3.03;;
44046;SDS011;29713;-33.888;151.150;2023-09-19T19:50:54;4.22;;;3.33;;
44046;SDS011;29713;-33.888;151.150;2023-09-19T19:53:25;3.90;;;3.00;;
44046;SDS011;29713;-33.888;151.150;2023-09-19T19:55:53;5.10;;;3.25;;
44046;SDS011;29713;-33.888;151.150;2023-09-19T19:58:24;4.10;;;3.10;;
44046;SDS011;29713;-33.888;151.150;2023-09-19T20:00:55;3.38;;;2.92;;
44046;SDS011;29713;-33.888;151.150;2023-09-19T20:03:23;4.07;;;3.00;;
44046;SDS011;29713;-33.888;151.150;2023-09-19T20:05:50;5.75;;;3.08;;
44046;SDS011;29713;-33.888;151.150;2023-09-19T20:08:18;7.78;;;3.55;;
44046;SDS011;29713;-33.888;151.150;2023-09-19T20:10:46;4.40;;;2.93;;
44046;SDS011;29713;-33.888;151.150;2023-09-19T20:13:13;4.10;;;2.97;;
44046;SDS011;29713;-33.888;151.150;2023-09-19T20:15:41;5.75;;;3.10;;
44046;SDS011;29713;-33.888;151.150;2023-09-19T20:18:09;4.35;;;2.83;;
44046;SDS011;29713;-33.888;151.150;2023-09-19T20:20:39;5.28;;;2.70;;
44046;SDS011;29713;-33.888;151.150;2023-09-19T20:23:07;5.35;;;2.80;;
44046;SDS011;29713;-33.888;151.150;2023-09-19T20:25:35;3.50;;;2.60;;
44046;SDS011;29713;-33.888;151.150;2023-09-19T20:28:03;4.05;;;2.85;;
44046;SDS011;29713;-33.888;151.150;2023-09-19T20:30:32;3.85;;;3.00;;
44046;SDS011;29713;-33.888;151.150;2023-09-19T20:33:05;3.55;;;2.80;;
44046;SDS011;29713;-33.888;151.150;2023-09-19T20:35:35;4.13;;;2.85;;
44046;SDS011;29713;-33.888;151.150;2023-09-19T20:38:04;4.93;;;2.65;;
44046;SDS011;29713;-33.888;151.150;2023-09-19T20:40:32;4.43;;;2.33;;
44046;SDS011;29713;-33.888;151.150;2023-09-19T20:43:02;3.22;;;2.10;;
44046;SDS011;29713;-33.888;151.150;2023-09-19T20:45:29;3.80;;;2.65;;
44046;SDS011;29713;-33.888;151.150;2023-09-19T20:47:59;5.00;;;2.83;;
44046;SDS011;29713;-33.888;151.150;2023-09-19T20:50:26;3.47;;;2.70;;
44046;SDS011;29713;-33.888;151.150;2023-09-19T20:52:53;5.32;;;2.90;;
44046;SDS011;29713;-33.888;151.150;2023-09-19T20:55:21;5.75;;;3.13;;
44046;SDS011;29713;-33.888;151.150;2023-09-19T20:57:51;5.78;;;2.92;;
44046;SDS011;29713;-33.888;151.150;2023-09-19T21:00:19;4.15;;;2.15;;
44046;SDS011;29713;-33.888;151.150;2023-09-19T21:02:49;5.93;;;2.40;;
44046;SDS011;29713;-33.888;151.150;2023-09-19T21:05:16;5.38;;;2.45;;
44046;SDS011;29713;-33.888;151.150;2023-09-19T21:07:47;5.20;;;2.38;;
44046;SDS011;29713;-33.888;151.150;2023-09-19T21:10:14;6.45;;;2.70;;
44046;SDS011;29713;-33.888;151.150;2023-09-19T21:12:41;7.80;;;2.70;;
44046;SDS011;29713;-33.888;151.150;2023-09-19T21:15:10;4.82;;;2.47;;
44046;SDS011;29713;-33.888;151.150;2023-09-19T21:17:37;6.60;;;3.03;;
44046;SDS011;29713;-33.888;151.150;2023-09-19T21:20:11;4.38;;;2.50;;
44046;SDS011;29713;-33.888;151.150;2023-09-19T21:22:42;4.50;;;2.53;;
44046;SDS011;29713;-33.888;151.150;2023-09-19T21:25:09;4.00;;;2.38;;
44046;SDS011;29713;-33.888;151.150;2023-09-19T21:27:37;3.90;;;2.80;;
44046;SDS011;29713;-33.888;151.150;2023-09-19T21:54:35;4.93;;;2.75;;
44046;SDS011;29713;-33.888;151.150;2023-09-19T21:57:02;3.83;;;2.50;;
44046;SDS011;29713;-33.888;151.150;2023-09-19T21:59:29;5.87;;;2.60;;
44046;SDS011;29713;-33.888;151.150;2023-09-19T22:01:57;4.45;;;2.67;;
44046;SDS011;29713;-33.888;151.150;2023-09-19T22:04:24;7.47;;;2.97;;
44046;SDS011;29713;-33.888;151.150;2023-09-19T22:06:52;27.70;;;5.13;;
44046;SDS011;29713;-33.888;151.150;2023-09-19T22:09:19;6.75;;;2.90;;
44046;SDS011;29713;-33.888;151.150;2023-09-19T22:11:47;3.53;;;2.60;;
44046;SDS011;29713;-33.888;151.150;2023-09-19T22:14:17;5.53;;;2.60;;
44046;SDS011;29713;-33.888;151.150;2023-09-19T22:16:44;5.30;;;2.60;;
44046;SDS011;29713;-33.888;151.150;2023-09-19T22:19:13;5.53;;;2.73;;
44046;SDS011;29713;-33.888;151.150;2023-09-19T22:21:41;8.48;;;3.00;;
44046;SDS011;29713;-33.888;151.150;2023-09-19T22:24:12;5.32;;;2.80;;
44046;SDS011;29713;-33.888;151.150;2023-09-19T22:26:41;4.90;;;2.78;;
44046;SDS011;29713;-33.888;151.150;2023-09-19T22:29:11;2.92;;;2.50;;
44046;SDS011;29713;-33.888;151.150;2023-09-19T22:31:38;4.65;;;2.83;;
44046;SDS011;29713;-33.888;151.150;2023-09-19T22:34:08;5.60;;;2.80;;
44046;SDS011;29713;-33.888;151.150;2023-09-19T22:36:37;4.83;;;2.80;;
44046;SDS011;29713;-33.888;151.150;2023-09-19T22:39:08;5.10;;;2.78;;
44046;SDS011;29713;-33.888;151.150;2023-09-19T22:41:55;5.30;;;2.53;;
44046;SDS011;29713;-33.888;151.150;2023-09-19T22:44:25;3.83;;;2.70;;
44046;SDS011;29713;-33.888;151.150;2023-09-19T22:46:53;5.60;;;2.78;;
44046;SDS011;29713;-33.888;151.150;2023-09-19T22:49:21;9.00;;;2.60;;
44046;SDS011;29713;-33.888;151.150;2023-09-19T22:51:52;6.57;;;2.95;;
44046;SDS011;29713;-33.888;151.150;2023-09-19T22:54:24;4.55;;;2.78;;
44046;SDS011;29713;-33.888;151.150;2023-09-19T22:56:52;6.25;;;2.88;;
44046;SDS011;29713;-33.888;151.150;2023-09-19T22:59:21;5.85;;;2.75;;
44046;SDS011;29713;-33.888;151.150;2023-09-19T23:01:48;4.78;;;2.60;;
44046;SDS011;29713;-33.888;151.150;2023-09-19T23:04:17;4.53;;;2.60;;
44046;SDS011;29713;-33.888;151.150;2023-09-19T23:06:47;6.57;;;2.83;;
44046;SDS011;29713;-33.888;151.150;2023-09-19T23:09:20;5.80;;;2.55;;
44046;SDS011;29713;-33.888;151.150;2023-09-19T23:11:51;4.60;;;2.80;;
44046;SDS011;29713;-33.888;151.150;2023-09-19T23:14:35;4.53;;;2.58;;
44046;SDS011;29713;-33.888;151.150;2023-09-19T23:17:06;6.90;;;3.08;;
44046;SDS011;29713;-33.888;151.150;2023-09-19T23:19:47;5.20;;;2.72;;
44046;SDS011;29713;-33.888;151.150;2023-09-19T23:22:18;6.18;;;2.58;;
44046;SDS011;29713;-33.888;151.150;2023-09-19T23:24:49;9.05;;;2.80;;
44046;SDS011;29713;-33.888;151.150;2023-09-19T23:27:24;5.82;;;2.80;;
44046;SDS011;29713;-33.888;151.150;2023-09-19T23:29:52;5.53;;;2.70;;
44046;SDS011;29713;-33.888;151.150;2023-09-19T23:32:21;5.47;;;2.67;;
44046;SDS011;29713;-33.888;151.150;2023-09-19T23:34:48;6.22;;;2.85;;
44046;SDS011;29713;-33.888;151.150;2023-09-19T23:37:15;7.15;;;2.85;;
44046;SDS011;29713;-33.888;151.150;2023-09-19T23:39:46;4.82;;;2.80;;
44046;SDS011;29713;-33.888;151.150;2023-09-19T23:42:16;5.35;;;2.80;;
44046;SDS011;29713;-33.888;151.150;2023-09-19T23:44:44;3.58;;;2.30;;
44046;SDS011;29713;-33.888;151.150;2023-09-19T23:47:14;5.97;;;2.47;;
44046;SDS011;29713;-33.888;151.150;2023-09-19T23:49:44;6.05;;;2.63;;
44046;SDS011;29713;-33.888;151.150;2023-09-19T23:52:14;3.65;;;2.33;;
44046;SDS011;29713;-33.888;151.150;2023-09-19T23:54:43;6.60;;;2.65;;
44046;SDS011;29713;-33.888;151.150;2023-09-19T23:57:11;6.05;;;2.55;;
44046;SDS011;29713;-33.888;151.150;2023-09-19T23:59:39;6.70;;;2.63;;
